sensor_id;sensor_type;location;lat;lon;timestamp;P1;durP1;ratioP1;P2;durP2;ratioP2
43519;SDS011;46848;51.980;5.918;2023-05-17T00:01:26;8.13;;;2.60;;
43519;SDS011;46848;51.980;5.918;2023-05-17T00:03:52;8.40;;;2.80;;
43519;SDS011;46848;51.980;5.918;2023-05-17T00:06:20;8.90;;;2.47;;
43519;SDS011;46848;51.980;5.918;2023-05-17T00:08:46;7.55;;;2.47;;
43519;SDS011;46848;51.980;5.918;2023-05-17T00:11:11;10.32;;;2.88;;
43519;SDS011;46848;51.980;5.918;2023-05-17T00:13:37;14.45;;;2.80;;
43519;SDS011;46848;51.980;5.918;2023-05-17T00:16:05;7.57;;;2.78;;
43519;SDS011;46848;51.980;5.918;2023-05-17T00:18:31;10.15;;;2.60;;
43519;SDS011;46848;51.980;5.918;2023-05-17T00:20:56;7.07;;;2.28;;
43519;SDS011;46848;51.980;5.918;2023-05-17T00:23:22;8.07;;;2.47;;
43519;SDS011;46848;51.980;5.918;2023-05-17T00:25:48;8.55;;;2.80;;
43519;SDS011;46848;51.980;5.918;2023-05-17T00:28:13;8.55;;;2.65;;
43519;SDS011;46848;51.980;5.918;2023-05-17T00:30:39;9.68;;;2.63;;
43519;SDS011;46848;51.980;5.918;2023-05-17T00:33:05;12.40;;;3.65;;
43519;SDS011;46848;51.980;5.918;2023-05-17T00:35:31;8.82;;;2.60;;
43519;SDS011;46848;51.980;5.918;2023-05-17T00:37:57;11.43;;;3.00;;
43519;SDS011;46848;51.980;5.918;2023-05-17T00:40:22;10.35;;;2.83;;
43519;SDS011;46848;51.980;5.918;2023-05-17T00:42:48;7.10;;;2.30;;
43519;SDS011;46848;51.980;5.918;2023-05-17T00:45:15;8.20;;;2.45;;
43519;SDS011;46848;51.980;5.918;2023-05-17T00:47:41;8.55;;;2.60;;
43519;SDS011;46848;51.980;5.918;2023-05-17T00:50:06;9.57;;;3.00;;
43519;SDS011;46848;51.980;5.918;2023-05-17T00:52:33;11.07;;;2.95;;
43519;SDS011;46848;51.980;5.918;2023-05-17T00:54:59;9.38;;;2.97;;
43519;SDS011;46848;51.980;5.918;2023-05-17T00:57:25;9.45;;;2.75;;
43519;SDS011;46848;51.980;5.918;2023-05-17T00:59:53;10.95;;;2.58;;
43519;SDS011;46848;51.980;5.918;2023-05-17T01:02:19;12.35;;;3.25;;
43519;SDS011;46848;51.980;5.918;2023-05-17T01:04:46;9.98;;;2.92;;
43519;SDS011;46848;51.980;5.918;2023-05-17T01:07:12;10.85;;;2.60;;
43519;SDS011;46848;51.980;5.918;2023-05-17T01:09:38;9.90;;;3.42;;
43519;SDS011;46848;51.980;5.918;2023-05-17T01:17:33;9.88;;;3.25;;
43519;SDS011;46848;51.980;5.918;2023-05-17T01:20:11;14.00;;;3.53;;
43519;SDS011;46848;51.980;5.918;2023-05-17T01:23:26;8.45;;;2.97;;
43519;SDS011;46848;51.980;5.918;2023-05-17T01:28:37;9.43;;;2.75;;
43519;SDS011;46848;51.980;5.918;2023-05-17T01:31:03;11.00;;;2.90;;
43519;SDS011;46848;51.980;5.918;2023-05-17T01:33:30;7.70;;;3.05;;
43519;SDS011;46848;51.980;5.918;2023-05-17T01:35:56;8.35;;;3.10;;
43519;SDS011;46848;51.980;5.918;2023-05-17T01:38:22;8.00;;;2.83;;
43519;SDS011;46848;51.980;5.918;2023-05-17T01:40:51;9.38;;;3.05;;
43519;SDS011;46848;51.980;5.918;2023-05-17T01:43:25;11.30;;;3.60;;
43519;SDS011;46848;51.980;5.918;2023-05-17T01:49:17;9.68;;;3.33;;
43519;SDS011;46848;51.980;5.918;2023-05-17T01:52:11;8.48;;;2.80;;
43519;SDS011;46848;51.980;5.918;2023-05-17T01:57:22;10.25;;;3.17;;
43519;SDS011;46848;51.980;5.918;2023-05-17T01:59:52;10.40;;;3.13;;
43519;SDS011;46848;51.980;5.918;2023-05-17T02:02:19;9.55;;;3.30;;
43519;SDS011;46848;51.980;5.918;2023-05-17T02:04:46;11.80;;;3.60;;
43519;SDS011;46848;51.980;5.918;2023-05-17T02:07:12;12.02;;;4.00;;
43519;SDS011;46848;51.980;5.918;2023-05-17T02:09:38;8.75;;;3.42;;
43519;SDS011;46848;51.980;5.918;2023-05-17T02:12:03;10.07;;;2.97;;
43519;SDS011;46848;51.980;5.918;2023-05-17T02:14:29;9.73;;;3.08;;
43519;SDS011;46848;51.980;5.918;2023-05-17T02:16:55;9.57;;;3.22;;
43519;SDS011;46848;51.980;5.918;2023-05-17T02:19:20;11.90;;;3.28;;
43519;SDS011;46848;51.980;5.918;2023-05-17T02:21:46;9.82;;;3.30;;
43519;SDS011;46848;51.980;5.918;2023-05-17T02:24:12;8.00;;;3.13;;
43519;SDS011;46848;51.980;5.918;2023-05-17T02:26:37;10.57;;;3.20;;
43519;SDS011;46848;51.980;5.918;2023-05-17T02:29:06;12.50;;;3.30;;
43519;SDS011;46848;51.980;5.918;2023-05-17T02:31:33;14.45;;;3.42;;
43519;SDS011;46848;51.980;5.918;2023-05-17T02:33:58;9.57;;;3.35;;
43519;SDS011;46848;51.980;5.918;2023-05-17T02:36:24;8.60;;;2.90;;
43519;SDS011;46848;51.980;5.918;2023-05-17T02:38:49;11.57;;;4.13;;
43519;SDS011;46848;51.980;5.918;2023-05-17T02:41:15;12.13;;;3.58;;
43519;SDS011;46848;51.980;5.918;2023-05-17T02:43:40;13.10;;;3.53;;
43519;SDS011;46848;51.980;5.918;2023-05-17T02:46:06;10.93;;;3.30;;
43519;SDS011;46848;51.980;5.918;2023-05-17T02:48:32;10.50;;;3.42;;
43519;SDS011;46848;51.980;5.918;2023-05-17T02:50:57;11.32;;;3.38;;
43519;SDS011;46848;51.980;5.918;2023-05-17T02:53:23;12.35;;;3.58;;
43519;SDS011;46848;51.980;5.918;2023-05-17T02:55:48;10.27;;;3.38;;
43519;SDS011;46848;51.980;5.918;2023-05-17T02:58:14;11.73;;;4.25;;
43519;SDS011;46848;51.980;5.918;2023-05-17T03:00:43;11.82;;;3.42;;
43519;SDS011;46848;51.980;5.918;2023-05-17T03:03:10;14.45;;;4.30;;
43519;SDS011;46848;51.980;5.918;2023-05-17T03:05:35;13.15;;;4.40;;
43519;SDS011;46848;51.980;5.918;2023-05-17T03:08:01;14.13;;;4.05;;
43519;SDS011;46848;51.980;5.918;2023-05-17T03:10:27;11.90;;;3.97;;
43519;SDS011;46848;51.980;5.918;2023-05-17T03:12:52;10.45;;;3.70;;
43519;SDS011;46848;51.980;5.918;2023-05-17T03:15:18;15.75;;;3.95;;
43519;SDS011;46848;51.980;5.918;2023-05-17T03:17:43;10.30;;;3.70;;
43519;SDS011;46848;51.980;5.918;2023-05-17T03:20:09;12.55;;;4.72;;
43519;SDS011;46848;51.980;5.918;2023-05-17T03:22:35;13.57;;;3.50;;
43519;SDS011;46848;51.980;5.918;2023-05-17T03:25:01;9.02;;;3.35;;
43519;SDS011;46848;51.980;5.918;2023-05-17T03:27:26;12.13;;;3.50;;
43519;SDS011;46848;51.980;5.918;2023-05-17T03:29:52;10.23;;;3.30;;
43519;SDS011;46848;51.980;5.918;2023-05-17T03:32:17;12.60;;;3.92;;
43519;SDS011;46848;51.980;5.918;2023-05-17T03:34:43;9.02;;;3.60;;
43519;SDS011;46848;51.980;5.918;2023-05-17T03:37:09;12.27;;;3.28;;
43519;SDS011;46848;51.980;5.918;2023-05-17T03:39:34;10.02;;;3.60;;
43519;SDS011;46848;51.980;5.918;2023-05-17T03:42:00;11.27;;;3.55;;
43519;SDS011;46848;51.980;5.918;2023-05-17T03:44:26;11.57;;;3.72;;
43519;SDS011;46848;51.980;5.918;2023-05-17T03:46:51;11.27;;;3.17;;
43519;SDS011;46848;51.980;5.918;2023-05-17T03:49:17;11.35;;;3.28;;
43519;SDS011;46848;51.980;5.918;2023-05-17T03:51:43;9.45;;;3.42;;
43519;SDS011;46848;51.980;5.918;2023-05-17T03:54:09;9.02;;;3.20;;
43519;SDS011;46848;51.980;5.918;2023-05-17T03:56:35;11.82;;;3.58;;
43519;SDS011;46848;51.980;5.918;2023-05-17T03:59:00;12.05;;;3.75;;
43519;SDS011;46848;51.980;5.918;2023-05-17T04:01:26;8.05;;;3.15;;
43519;SDS011;46848;51.980;5.918;2023-05-17T04:03:51;8.45;;;2.88;;
43519;SDS011;46848;51.980;5.918;2023-05-17T04:06:17;10.27;;;3.65;;
43519;SDS011;46848;51.980;5.918;2023-05-17T04:08:43;9.07;;;3.55;;
43519;SDS011;46848;51.980;5.918;2023-05-17T04:11:08;10.05;;;3.25;;
43519;SDS011;46848;51.980;5.918;2023-05-17T04:13:36;10.52;;;3.50;;
43519;SDS011;46848;51.980;5.918;2023-05-17T04:16:02;13.00;;;3.05;;
43519;SDS011;46848;51.980;5.918;2023-05-17T04:18:28;9.32;;;2.83;;
43519;SDS011;46848;51.980;5.918;2023-05-17T04:20:54;10.38;;;3.00;;
43519;SDS011;46848;51.980;5.918;2023-05-17T04:23:20;14.18;;;3.30;;
43519;SDS011;46848;51.980;5.918;2023-05-17T04:25:45;11.43;;;3.55;;
43519;SDS011;46848;51.980;5.918;2023-05-17T04:28:11;10.85;;;4.10;;
43519;SDS011;46848;51.980;5.918;2023-05-17T04:30:40;10.13;;;3.28;;
43519;SDS011;46848;51.980;5.918;2023-05-17T04:33:06;9.57;;;3.47;;
43519;SDS011;46848;51.980;5.918;2023-05-17T04:35:32;9.85;;;3.55;;
43519;SDS011;46848;51.980;5.918;2023-05-17T04:37:58;10.50;;;3.60;;
43519;SDS011;46848;51.980;5.918;2023-05-17T04:40:23;8.98;;;2.97;;
43519;SDS011;46848;51.980;5.918;2023-05-17T04:42:49;11.10;;;3.25;;
43519;SDS011;46848;51.980;5.918;2023-05-17T04:45:16;9.27;;;3.65;;
43519;SDS011;46848;51.980;5.918;2023-05-17T04:47:41;12.85;;;3.55;;
43519;SDS011;46848;51.980;5.918;2023-05-17T04:50:07;10.45;;;3.05;;
43519;SDS011;46848;51.980;5.918;2023-05-17T04:52:33;10.43;;;3.38;;
43519;SDS011;46848;51.980;5.918;2023-05-17T04:54:59;10.00;;;3.55;;
43519;SDS011;46848;51.980;5.918;2023-05-17T04:57:24;15.07;;;4.18;;
43519;SDS011;46848;51.980;5.918;2023-05-17T04:59:50;11.60;;;3.50;;
43519;SDS011;46848;51.980;5.918;2023-05-17T05:02:15;12.65;;;3.53;;
43519;SDS011;46848;51.980;5.918;2023-05-17T05:04:41;13.38;;;3.95;;
43519;SDS011;46848;51.980;5.918;2023-05-17T05:07:06;9.00;;;3.40;;
43519;SDS011;46848;51.980;5.918;2023-05-17T05:09:32;9.85;;;3.13;;
43519;SDS011;46848;51.980;5.918;2023-05-17T05:11:58;14.15;;;3.78;;
43519;SDS011;46848;51.980;5.918;2023-05-17T05:14:23;12.05;;;3.08;;
43519;SDS011;46848;51.980;5.918;2023-05-17T05:16:49;9.35;;;3.53;;
43519;SDS011;46848;51.980;5.918;2023-05-17T05:19:15;11.15;;;3.65;;
43519;SDS011;46848;51.980;5.918;2023-05-17T05:21:43;7.80;;;3.03;;
43519;SDS011;46848;51.980;5.918;2023-05-17T05:24:10;12.40;;;3.03;;
43519;SDS011;46848;51.980;5.918;2023-05-17T05:26:35;13.55;;;3.60;;
43519;SDS011;46848;51.980;5.918;2023-05-17T05:29:01;8.80;;;3.03;;
43519;SDS011;46848;51.980;5.918;2023-05-17T05:31:27;11.35;;;3.45;;
43519;SDS011;46848;51.980;5.918;2023-05-17T05:33:52;9.05;;;3.03;;
43519;SDS011;46848;51.980;5.918;2023-05-17T05:36:18;10.07;;;3.70;;
43519;SDS011;46848;51.980;5.918;2023-05-17T05:38:44;12.48;;;3.08;;
43519;SDS011;46848;51.980;5.918;2023-05-17T05:41:09;12.48;;;3.25;;
43519;SDS011;46848;51.980;5.918;2023-05-17T05:43:35;10.40;;;2.88;;
43519;SDS011;46848;51.980;5.918;2023-05-17T05:46:01;12.07;;;3.10;;
43519;SDS011;46848;51.980;5.918;2023-05-17T05:48:27;8.63;;;2.50;;
43519;SDS011;46848;51.980;5.918;2023-05-17T05:50:53;12.07;;;3.20;;
43519;SDS011;46848;51.980;5.918;2023-05-17T05:53:18;11.75;;;2.75;;
43519;SDS011;46848;51.980;5.918;2023-05-17T05:55:44;11.73;;;2.58;;
43519;SDS011;46848;51.980;5.918;2023-05-17T05:58:09;12.27;;;3.40;;
43519;SDS011;46848;51.980;5.918;2023-05-17T06:00:35;8.82;;;2.38;;
43519;SDS011;46848;51.980;5.918;2023-05-17T06:03:01;14.98;;;3.65;;
43519;SDS011;46848;51.980;5.918;2023-05-17T06:05:26;9.02;;;2.88;;
43519;SDS011;46848;51.980;5.918;2023-05-17T06:07:52;13.52;;;3.45;;
43519;SDS011;46848;51.980;5.918;2023-05-17T06:10:18;10.07;;;2.50;;
43519;SDS011;46848;51.980;5.918;2023-05-17T06:12:43;12.38;;;2.63;;
43519;SDS011;46848;51.980;5.918;2023-05-17T06:15:09;11.98;;;2.78;;
43519;SDS011;46848;51.980;5.918;2023-05-17T06:17:35;11.73;;;2.65;;
43519;SDS011;46848;51.980;5.918;2023-05-17T06:20:04;8.15;;;2.53;;
43519;SDS011;46848;51.980;5.918;2023-05-17T06:22:52;11.10;;;2.67;;
43519;SDS011;46848;51.980;5.918;2023-05-17T06:25:18;10.88;;;2.38;;
43519;SDS011;46848;51.980;5.918;2023-05-17T06:27:43;12.98;;;3.92;;
43519;SDS011;46848;51.980;5.918;2023-05-17T06:30:09;11.68;;;2.35;;
43519;SDS011;46848;51.980;5.918;2023-05-17T06:32:38;14.20;;;3.33;;
43519;SDS011;46848;51.980;5.918;2023-05-17T06:35:03;10.18;;;3.03;;
43519;SDS011;46848;51.980;5.918;2023-05-17T06:37:30;8.55;;;2.17;;
43519;SDS011;46848;51.980;5.918;2023-05-17T06:40:06;12.45;;;2.70;;
43519;SDS011;46848;51.980;5.918;2023-05-17T06:42:33;12.13;;;2.25;;
43519;SDS011;46848;51.980;5.918;2023-05-17T06:44:59;9.18;;;2.45;;
43519;SDS011;46848;51.980;5.918;2023-05-17T06:47:24;10.25;;;2.50;;
43519;SDS011;46848;51.980;5.918;2023-05-17T06:49:50;8.63;;;2.63;;
43519;SDS011;46848;51.980;5.918;2023-05-17T06:52:16;8.10;;;2.28;;
43519;SDS011;46848;51.980;5.918;2023-05-17T06:54:41;8.40;;;2.17;;
43519;SDS011;46848;51.980;5.918;2023-05-17T06:57:07;11.60;;;3.80;;
43519;SDS011;46848;51.980;5.918;2023-05-17T06:59:34;8.05;;;2.92;;
43519;SDS011;46848;51.980;5.918;2023-05-17T07:02:00;10.02;;;3.30;;
43519;SDS011;46848;51.980;5.918;2023-05-17T07:04:26;9.07;;;2.55;;
43519;SDS011;46848;51.980;5.918;2023-05-17T07:06:52;9.57;;;2.28;;
43519;SDS011;46848;51.980;5.918;2023-05-17T07:09:19;7.50;;;2.28;;
43519;SDS011;46848;51.980;5.918;2023-05-17T07:11:45;9.70;;;2.15;;
43519;SDS011;46848;51.980;5.918;2023-05-17T07:14:11;6.68;;;1.55;;
43519;SDS011;46848;51.980;5.918;2023-05-17T07:16:36;9.30;;;2.63;;
43519;SDS011;46848;51.980;5.918;2023-05-17T07:19:02;6.82;;;1.83;;
43519;SDS011;46848;51.980;5.918;2023-05-17T07:21:27;8.60;;;1.98;;
43519;SDS011;46848;51.980;5.918;2023-05-17T07:23:53;8.35;;;1.80;;
43519;SDS011;46848;51.980;5.918;2023-05-17T07:26:19;11.32;;;2.08;;
43519;SDS011;46848;51.980;5.918;2023-05-17T07:28:45;6.80;;;1.85;;
43519;SDS011;46848;51.980;5.918;2023-05-17T07:31:11;9.48;;;2.10;;
43519;SDS011;46848;51.980;5.918;2023-05-17T07:33:37;8.52;;;2.15;;
43519;SDS011;46848;51.980;5.918;2023-05-17T07:36:03;8.10;;;1.95;;
43519;SDS011;46848;51.980;5.918;2023-05-17T07:38:29;12.50;;;1.90;;
43519;SDS011;46848;51.980;5.918;2023-05-17T07:40:55;10.20;;;1.92;;
43519;SDS011;46848;51.980;5.918;2023-05-17T07:43:20;7.20;;;1.85;;
43519;SDS011;46848;51.980;5.918;2023-05-17T07:45:46;5.65;;;1.25;;
43519;SDS011;46848;51.980;5.918;2023-05-17T07:48:12;9.75;;;2.03;;
43519;SDS011;46848;51.980;5.918;2023-05-17T07:50:38;6.07;;;1.50;;
43519;SDS011;46848;51.980;5.918;2023-05-17T07:53:05;8.95;;;1.75;;
43519;SDS011;46848;51.980;5.918;2023-05-17T07:55:31;6.20;;;1.75;;
43519;SDS011;46848;51.980;5.918;2023-05-17T07:57:57;7.28;;;1.65;;
43519;SDS011;46848;51.980;5.918;2023-05-17T08:00:23;9.95;;;2.13;;
43519;SDS011;46848;51.980;5.918;2023-05-17T08:02:49;7.18;;;1.55;;
43519;SDS011;46848;51.980;5.918;2023-05-17T08:05:15;7.28;;;1.67;;
43519;SDS011;46848;51.980;5.918;2023-05-17T08:07:41;10.35;;;1.58;;
43519;SDS011;46848;51.980;5.918;2023-05-17T08:10:06;6.50;;;1.67;;
43519;SDS011;46848;51.980;5.918;2023-05-17T08:12:32;6.10;;;1.58;;
43519;SDS011;46848;51.980;5.918;2023-05-17T08:14:58;8.00;;;1.27;;
43519;SDS011;46848;51.980;5.918;2023-05-17T08:17:23;9.27;;;1.77;;
43519;SDS011;46848;51.980;5.918;2023-05-17T08:19:49;8.52;;;1.40;;
43519;SDS011;46848;51.980;5.918;2023-05-17T08:22:15;7.38;;;1.67;;
43519;SDS011;46848;51.980;5.918;2023-05-17T08:24:41;10.25;;;1.55;;
43519;SDS011;46848;51.980;5.918;2023-05-17T08:27:08;4.78;;;1.20;;
43519;SDS011;46848;51.980;5.918;2023-05-17T08:29:34;7.45;;;1.60;;
43519;SDS011;46848;51.980;5.918;2023-05-17T08:32:01;4.60;;;1.10;;
43519;SDS011;46848;51.980;5.918;2023-05-17T08:34:27;6.78;;;1.40;;
43519;SDS011;46848;51.980;5.918;2023-05-17T08:36:52;7.15;;;1.38;;
43519;SDS011;46848;51.980;5.918;2023-05-17T08:39:18;6.90;;;1.50;;
43519;SDS011;46848;51.980;5.918;2023-05-17T08:41:45;6.45;;;1.40;;
43519;SDS011;46848;51.980;5.918;2023-05-17T08:44:12;7.05;;;1.65;;
43519;SDS011;46848;51.980;5.918;2023-05-17T08:46:40;7.15;;;1.65;;
43519;SDS011;46848;51.980;5.918;2023-05-17T08:49:08;6.35;;;1.60;;
43519;SDS011;46848;51.980;5.918;2023-05-17T08:51:36;10.05;;;1.50;;
43519;SDS011;46848;51.980;5.918;2023-05-17T08:54:06;6.82;;;1.30;;
43519;SDS011;46848;51.980;5.918;2023-05-17T08:56:32;7.47;;;1.50;;
43519;SDS011;46848;51.980;5.918;2023-05-17T08:59:00;6.43;;;1.60;;
43519;SDS011;46848;51.980;5.918;2023-05-17T09:01:29;7.10;;;1.75;;
43519;SDS011;46848;51.980;5.918;2023-05-17T09:03:55;5.53;;;1.38;;
43519;SDS011;46848;51.980;5.918;2023-05-17T09:06:22;6.07;;;1.15;;
43519;SDS011;46848;51.980;5.918;2023-05-17T09:08:51;5.38;;;1.30;;
43519;SDS011;46848;51.980;5.918;2023-05-17T09:11:25;5.10;;;1.10;;
43519;SDS011;46848;51.980;5.918;2023-05-17T09:14:01;6.57;;;1.30;;
43519;SDS011;46848;51.980;5.918;2023-05-17T09:16:35;5.47;;;1.38;;
43519;SDS011;46848;51.980;5.918;2023-05-17T09:19:05;4.75;;;1.25;;
43519;SDS011;46848;51.980;5.918;2023-05-17T09:21:32;5.68;;;1.52;;
43519;SDS011;46848;51.980;5.918;2023-05-17T09:23:59;4.55;;;1.40;;
43519;SDS011;46848;51.980;5.918;2023-05-17T09:26:37;6.50;;;1.30;;
43519;SDS011;46848;51.980;5.918;2023-05-17T09:29:06;5.47;;;1.23;;
43519;SDS011;46848;51.980;5.918;2023-05-17T09:31:35;5.15;;;0.93;;
43519;SDS011;46848;51.980;5.918;2023-05-17T09:34:04;6.88;;;1.63;;
43519;SDS011;46848;51.980;5.918;2023-05-17T09:36:36;6.38;;;1.40;;
43519;SDS011;46848;51.980;5.918;2023-05-17T09:39:06;8.23;;;1.52;;
43519;SDS011;46848;51.980;5.918;2023-05-17T09:41:45;8.10;;;1.23;;
43519;SDS011;46848;51.980;5.918;2023-05-17T09:44:12;5.88;;;1.13;;
43519;SDS011;46848;51.980;5.918;2023-05-17T09:46:41;5.88;;;1.58;;
43519;SDS011;46848;51.980;5.918;2023-05-17T09:49:09;4.75;;;1.02;;
43519;SDS011;46848;51.980;5.918;2023-05-17T09:51:36;7.25;;;1.17;;
43519;SDS011;46848;51.980;5.918;2023-05-17T09:54:05;4.43;;;0.88;;
43519;SDS011;46848;51.980;5.918;2023-05-17T09:56:31;6.22;;;1.17;;
43519;SDS011;46848;51.980;5.918;2023-05-17T09:58:57;6.53;;;1.52;;
43519;SDS011;46848;51.980;5.918;2023-05-17T10:01:28;5.50;;;1.20;;
43519;SDS011;46848;51.980;5.918;2023-05-17T10:03:58;4.82;;;1.02;;
43519;SDS011;46848;51.980;5.918;2023-05-17T10:06:26;7.38;;;1.20;;
43519;SDS011;46848;51.980;5.918;2023-05-17T10:08:54;5.63;;;1.27;;
43519;SDS011;46848;51.980;5.918;2023-05-17T10:11:26;7.55;;;1.25;;
43519;SDS011;46848;51.980;5.918;2023-05-17T10:16:31;3.85;;;1.00;;
43519;SDS011;46848;51.980;5.918;2023-05-17T10:18:58;5.38;;;1.23;;
43519;SDS011;46848;51.980;5.918;2023-05-17T10:21:25;6.47;;;1.38;;
43519;SDS011;46848;51.980;5.918;2023-05-17T10:23:52;6.45;;;1.08;;
43519;SDS011;46848;51.980;5.918;2023-05-17T10:26:19;4.90;;;1.25;;
43519;SDS011;46848;51.980;5.918;2023-05-17T10:28:46;4.75;;;0.85;;
43519;SDS011;46848;51.980;5.918;2023-05-17T10:31:14;3.60;;;1.00;;
43519;SDS011;46848;51.980;5.918;2023-05-17T10:33:40;9.00;;;1.38;;
43519;SDS011;46848;51.980;5.918;2023-05-17T10:36:09;4.97;;;1.00;;
43519;SDS011;46848;51.980;5.918;2023-05-17T10:38:36;3.95;;;0.80;;
43519;SDS011;46848;51.980;5.918;2023-05-17T10:41:02;5.70;;;1.23;;
43519;SDS011;46848;51.980;5.918;2023-05-17T10:43:28;6.93;;;1.15;;
43519;SDS011;46848;51.980;5.918;2023-05-17T10:45:55;4.18;;;0.93;;
43519;SDS011;46848;51.980;5.918;2023-05-17T10:48:21;5.95;;;1.33;;
43519;SDS011;46848;51.980;5.918;2023-05-17T10:50:51;5.15;;;1.15;;
43519;SDS011;46848;51.980;5.918;2023-05-17T10:53:17;6.47;;;1.20;;
43519;SDS011;46848;51.980;5.918;2023-05-17T10:55:43;5.40;;;1.23;;
43519;SDS011;46848;51.980;5.918;2023-05-17T10:58:16;3.22;;;0.82;;
43519;SDS011;46848;51.980;5.918;2023-05-17T11:00:49;3.55;;;1.10;;
43519;SDS011;46848;51.980;5.918;2023-05-17T11:03:18;5.97;;;1.25;;
43519;SDS011;46848;51.980;5.918;2023-05-17T11:09:14;5.63;;;1.40;;
43519;SDS011;46848;51.980;5.918;2023-05-17T11:15:32;5.60;;;1.13;;
43519;SDS011;46848;51.980;5.918;2023-05-17T11:17:34;5.18;;;0.82;;
43519;SDS011;46848;51.980;5.918;2023-05-17T11:20:00;8.60;;;1.35;;
43519;SDS011;46848;51.980;5.918;2023-05-17T11:22:27;5.97;;;1.33;;
43519;SDS011;46848;51.980;5.918;2023-05-17T11:25:01;3.03;;;0.70;;
43519;SDS011;46848;51.980;5.918;2023-05-17T11:27:35;7.50;;;1.23;;
43519;SDS011;46848;51.980;5.918;2023-05-17T11:30:30;5.85;;;1.33;;
43519;SDS011;46848;51.980;5.918;2023-05-17T11:33:00;8.10;;;1.60;;
43519;SDS011;46848;51.980;5.918;2023-05-17T11:35:30;3.60;;;0.98;;
43519;SDS011;46848;51.980;5.918;2023-05-17T11:38:17;7.90;;;1.40;;
43519;SDS011;46848;51.980;5.918;2023-05-17T11:40:46;5.72;;;1.30;;
43519;SDS011;46848;51.980;5.918;2023-05-17T11:43:17;7.90;;;1.60;;
43519;SDS011;46848;51.980;5.918;2023-05-17T11:45:47;6.82;;;1.33;;
43519;SDS011;46848;51.980;5.918;2023-05-17T11:48:14;5.20;;;1.38;;
43519;SDS011;46848;51.980;5.918;2023-05-17T11:50:42;7.03;;;1.45;;
43519;SDS011;46848;51.980;5.918;2023-05-17T11:53:09;4.43;;;1.17;;
43519;SDS011;46848;51.980;5.918;2023-05-17T11:55:36;7.45;;;1.40;;
43519;SDS011;46848;51.980;5.918;2023-05-17T11:58:05;4.75;;;1.15;;
43519;SDS011;46848;51.980;5.918;2023-05-17T12:00:39;8.60;;;1.60;;
43519;SDS011;46848;51.980;5.918;2023-05-17T12:03:16;5.90;;;1.33;;
43519;SDS011;46848;51.980;5.918;2023-05-17T12:05:45;6.00;;;1.40;;
43519;SDS011;46848;51.980;5.918;2023-05-17T12:08:18;7.93;;;1.60;;
43519;SDS011;46848;51.980;5.918;2023-05-17T12:10:53;10.18;;;1.80;;
43519;SDS011;46848;51.980;5.918;2023-05-17T12:13:21;6.38;;;1.45;;
43519;SDS011;46848;51.980;5.918;2023-05-17T12:15:52;7.45;;;1.60;;
43519;SDS011;46848;51.980;5.918;2023-05-17T12:18:21;3.92;;;1.10;;
43519;SDS011;46848;51.980;5.918;2023-05-17T12:23:36;8.52;;;2.42;;
43519;SDS011;46848;51.980;5.918;2023-05-17T12:26:14;8.73;;;1.63;;
43519;SDS011;46848;51.980;5.918;2023-05-17T12:34:32;6.70;;;1.60;;
43519;SDS011;46848;51.980;5.918;2023-05-17T12:36:58;6.70;;;1.50;;
43519;SDS011;46848;51.980;5.918;2023-05-17T12:39:26;7.63;;;1.80;;
43519;SDS011;46848;51.980;5.918;2023-05-17T12:41:58;7.35;;;1.65;;
43519;SDS011;46848;51.980;5.918;2023-05-17T12:44:30;7.68;;;1.95;;
43519;SDS011;46848;51.980;5.918;2023-05-17T12:47:05;6.60;;;2.00;;
43519;SDS011;46848;51.980;5.918;2023-05-17T12:49:56;13.57;;;2.05;;
43519;SDS011;46848;51.980;5.918;2023-05-17T12:52:36;5.00;;;1.70;;
43519;SDS011;46848;51.980;5.918;2023-05-17T12:55:05;10.02;;;1.90;;
43519;SDS011;46848;51.980;5.918;2023-05-17T13:00:04;9.88;;;2.80;;
43519;SDS011;46848;51.980;5.918;2023-05-17T13:02:31;6.47;;;2.00;;
43519;SDS011;46848;51.980;5.918;2023-05-17T13:04:57;6.22;;;1.98;;
43519;SDS011;46848;51.980;5.918;2023-05-17T13:07:23;8.93;;;1.95;;
43519;SDS011;46848;51.980;5.918;2023-05-17T13:09:49;9.32;;;2.05;;
43519;SDS011;46848;51.980;5.918;2023-05-17T13:12:18;7.40;;;2.10;;
43519;SDS011;46848;51.980;5.918;2023-05-17T13:14:48;7.57;;;1.83;;
43519;SDS011;46848;51.980;5.918;2023-05-17T13:17:22;7.78;;;1.63;;
43519;SDS011;46848;51.980;5.918;2023-05-17T13:19:50;7.28;;;1.70;;
43519;SDS011;46848;51.980;5.918;2023-05-17T13:22:16;10.05;;;1.90;;
43519;SDS011;46848;51.980;5.918;2023-05-17T13:24:42;8.07;;;1.80;;
43519;SDS011;46848;51.980;5.918;2023-05-17T13:27:11;8.20;;;1.98;;
43519;SDS011;46848;51.980;5.918;2023-05-17T13:29:40;6.35;;;1.58;;
43519;SDS011;46848;51.980;5.918;2023-05-17T13:32:06;6.78;;;1.73;;
43519;SDS011;46848;51.980;5.918;2023-05-17T13:34:33;7.20;;;1.35;;
43519;SDS011;46848;51.980;5.918;2023-05-17T13:36:59;8.52;;;2.00;;
43519;SDS011;46848;51.980;5.918;2023-05-17T13:39:25;7.90;;;1.83;;
43519;SDS011;46848;51.980;5.918;2023-05-17T13:41:51;5.80;;;1.55;;
43519;SDS011;46848;51.980;5.918;2023-05-17T13:44:18;9.23;;;2.08;;
43519;SDS011;46848;51.980;5.918;2023-05-17T13:46:43;10.88;;;2.55;;
43519;SDS011;46848;51.980;5.918;2023-05-17T13:49:09;7.13;;;1.50;;
43519;SDS011;46848;51.980;5.918;2023-05-17T13:51:35;10.48;;;2.95;;
43519;SDS011;46848;51.980;5.918;2023-05-17T13:54:04;6.50;;;1.95;;
43519;SDS011;46848;51.980;5.918;2023-05-17T13:56:31;7.15;;;1.92;;
43519;SDS011;46848;51.980;5.918;2023-05-17T13:58:57;6.85;;;2.10;;
43519;SDS011;46848;51.980;5.918;2023-05-17T14:01:24;6.18;;;1.75;;
43519;SDS011;46848;51.980;5.918;2023-05-17T14:03:50;8.45;;;2.35;;
43519;SDS011;46848;51.980;5.918;2023-05-17T14:06:16;7.53;;;1.98;;
43519;SDS011;46848;51.980;5.918;2023-05-17T14:08:42;6.82;;;1.88;;
43519;SDS011;46848;51.980;5.918;2023-05-17T14:11:10;6.95;;;1.85;;
43519;SDS011;46848;51.980;5.918;2023-05-17T14:13:35;7.90;;;1.90;;
43519;SDS011;46848;51.980;5.918;2023-05-17T14:16:01;8.27;;;2.70;;
43519;SDS011;46848;51.980;5.918;2023-05-17T14:18:27;9.32;;;1.90;;
43519;SDS011;46848;51.980;5.918;2023-05-17T14:20:52;7.75;;;1.85;;
43519;SDS011;46848;51.980;5.918;2023-05-17T14:23:18;8.00;;;2.00;;
43519;SDS011;46848;51.980;5.918;2023-05-17T14:25:43;6.70;;;2.17;;
43519;SDS011;46848;51.980;5.918;2023-05-17T14:28:12;9.98;;;1.83;;
43519;SDS011;46848;51.980;5.918;2023-05-17T14:30:40;9.15;;;2.42;;
43519;SDS011;46848;51.980;5.918;2023-05-17T14:33:06;10.05;;;2.67;;
43519;SDS011;46848;51.980;5.918;2023-05-17T14:35:31;8.57;;;2.42;;
43519;SDS011;46848;51.980;5.918;2023-05-17T14:37:57;11.70;;;3.53;;
43519;SDS011;46848;51.980;5.918;2023-05-17T14:40:22;8.82;;;2.20;;
43519;SDS011;46848;51.980;5.918;2023-05-17T14:42:48;6.40;;;1.92;;
43519;SDS011;46848;51.980;5.918;2023-05-17T14:45:13;9.20;;;1.77;;
43519;SDS011;46848;51.980;5.918;2023-05-17T14:47:39;10.20;;;2.53;;
43519;SDS011;46848;51.980;5.918;2023-05-17T14:50:05;11.13;;;2.50;;
43519;SDS011;46848;51.980;5.918;2023-05-17T14:52:31;8.18;;;1.80;;
43519;SDS011;46848;51.980;5.918;2023-05-17T14:54:57;7.05;;;2.22;;
43519;SDS011;46848;51.980;5.918;2023-05-17T14:57:23;9.05;;;2.20;;
43519;SDS011;46848;51.980;5.918;2023-05-17T14:59:49;8.07;;;1.90;;
43519;SDS011;46848;51.980;5.918;2023-05-17T15:02:14;9.00;;;2.22;;
43519;SDS011;46848;51.980;5.918;2023-05-17T15:04:40;7.97;;;1.85;;
43519;SDS011;46848;51.980;5.918;2023-05-17T15:07:06;9.52;;;2.05;;
43519;SDS011;46848;51.980;5.918;2023-05-17T15:09:31;10.75;;;2.40;;
43519;SDS011;46848;51.980;5.918;2023-05-17T15:12:06;8.82;;;1.73;;
43519;SDS011;46848;51.980;5.918;2023-05-17T15:14:35;7.88;;;2.20;;
43519;SDS011;46848;51.980;5.918;2023-05-17T15:17:00;7.15;;;2.05;;
43519;SDS011;46848;51.980;5.918;2023-05-17T15:19:27;9.75;;;3.05;;